Time;durP1;ratioP1;P1;durP2;ratioP2;P2;SDS_P1;SDS_P2;PMS_P1;PMS_P2;Temp;Humidity;BMP_temperature;BMP_pressure;BME280_temperature;BME280_humidity;BME280_pressure;Samples;Min_cycle;Max_cycle;Signal;HPM_P1;HPM_P2
2022/07/17 00:01:48;;;;;;;3.60;0.80;;;;;;;19.59;43.63;100939.66;5588572;31;34339;-67
2022/07/17 00:04:51;;;;;;;1.50;0.90;;;;;;;19.60;43.52;100944.00;5589224;31;33945;-67
2022/07/17 00:07:54;;;;;;;2.17;0.90;;;;;;;19.50;43.88;100947.16;5589429;31;35189;-67
2022/07/17 00:10:58;;;;;;;1.60;0.95;;;;;;;19.41;44.21;100949.19;5589062;31;34654;-68
2022/07/17 00:14:00;;;;;;;1.10;0.60;;;;;;;19.41;44.33;100951.87;5589043;31;34013;-66
2022/07/17 00:17:05;;;;;;;1.83;1.00;;;;;;;19.39;44.34;100953.97;5589484;31;34586;-67
2022/07/17 00:20:08;;;;;;;1.55;0.85;;;;;;;19.30;44.59;100963.31;5589115;31;34039;-67
2022/07/17 00:23:11;;;;;;;1.62;0.90;;;;;;;19.21;45.03;100961.88;5588911;31;35225;-67
2022/07/17 00:26:14;;;;;;;1.17;0.80;;;;;;;19.18;45.36;100961.47;5587618;31;33321;-67
2022/07/17 00:29:18;;;;;;;3.58;1.20;;;;;;;19.13;45.66;100962.09;5588811;31;34596;-67
2022/07/17 00:32:23;;;;;;;1.70;0.80;;;;;;;19.09;45.79;100961.69;5588824;31;34323;-66
2022/07/17 00:35:26;;;;;;;2.20;0.88;;;;;;;19.00;46.09;100970.19;5588163;31;33280;-67
2022/07/17 00:38:29;;;;;;;1.75;1.00;;;;;;;18.89;46.54;100973.50;5588858;31;34105;-67
2022/07/17 00:41:32;;;;;;;2.40;1.05;;;;;;;18.75;47.12;100967.28;5588790;31;34328;-67
2022/07/17 00:44:35;;;;;;;1.12;0.80;;;;;;;18.59;47.72;100978.44;5588632;31;33942;-68
2022/07/17 00:48:00;;;;;;;1.75;1.12;;;;;;;18.46;48.24;100976.53;5587994;31;33041;-67
2022/07/17 00:51:03;;;;;;;1.60;0.98;;;;;;;18.38;48.72;100981.28;5588898;31;34101;-67
2022/07/17 00:54:07;;;;;;;1.05;0.73;;;;;;;18.34;48.97;100986.25;5588728;31;33919;-67
2022/07/17 00:57:13;;;;;;;1.80;1.02;;;;;;;18.23;49.25;100984.97;5588276;31;35017;-68
2022/07/17 01:00:17;;;;;;;1.50;1.05;;;;;;;18.24;49.08;100980.44;5588352;31;33780;-67
2022/07/17 01:03:22;;;;;;;1.60;0.98;;;;;;;18.27;49.03;100985.41;5588582;31;33964;-67
2022/07/17 01:06:25;;;;;;;1.48;0.80;;;;;;;18.35;48.55;100981.72;5588564;31;35188;-67
2022/07/17 01:09:28;;;;;;;2.37;0.90;;;;;;;18.40;48.59;100987.25;5588028;31;34341;-67
2022/07/17 01:12:33;;;;;;;2.62;0.95;;;;;;;18.38;48.75;100982.13;5588381;31;34669;-67
2022/07/17 01:15:39;;;;;;;1.87;1.00;;;;;;;18.35;49.18;100987.09;5588084;31;34452;-67
2022/07/17 01:18:43;;;;;;;2.05;1.00;;;;;;;18.28;49.49;100984.38;5588105;31;34040;-67
2022/07/17 01:21:48;;;;;;;2.00;1.12;;;;;;;18.19;49.76;100991.78;5586997;31;32468;-67
2022/07/17 01:24:51;;;;;;;1.20;1.05;;;;;;;18.11;50.17;100991.12;5588305;31;33893;-67
2022/07/17 01:27:54;;;;;;;4.07;0.90;;;;;;;18.00;50.56;100995.25;5587804;31;34805;-67
2022/07/17 01:31:00;;;;;;;2.78;0.90;;;;;;;17.97;50.76;100994.78;5587683;31;34004;-68
2022/07/17 01:34:05;;;;;;;2.00;1.20;;;;;;;17.91;50.87;100988.38;5586973;31;32381;-66
2022/07/17 01:37:08;;;;;;;3.72;1.00;;;;;;;17.89;51.10;100985.06;5588079;31;33968;-67
2022/07/17 01:40:13;;;;;;;4.95;1.00;;;;;;;17.91;51.04;100993.75;5589768;31;33985;-67
2022/07/17 01:43:16;;;;;;;1.85;0.90;;;;;;;17.85;51.34;101004.47;5590789;31;33971;-67
2022/07/17 01:46:19;;;;;;;2.65;1.15;;;;;;;17.73;51.73;101005.03;5590523;31;34099;-67
2022/07/17 01:49:22;;;;;;;1.60;1.00;;;;;;;17.72;52.03;101005.22;5590521;31;34787;-66
2022/07/17 01:52:25;;;;;;;1.58;1.08;;;;;;;17.65;52.08;100999.84;5590864;31;35269;-67
2022/07/17 01:55:28;;;;;;;2.42;0.95;;;;;;;17.54;52.53;101004.88;5590768;31;35209;-67
2022/07/17 01:58:31;;;;;;;1.15;0.90;;;;;;;17.47;52.94;101012.09;5590358;31;34842;-67
2022/07/17 02:01:34;;;;;;;2.10;1.17;;;;;;;17.42;53.29;101010.00;5590339;31;34051;-67
2022/07/17 02:04:41;;;;;;;2.87;1.23;;;;;;;17.27;53.76;101010.09;5590718;31;34041;-67
2022/07/17 02:07:44;;;;;;;1.40;1.08;;;;;;;17.16;54.07;101021.34;5590388;31;33967;-67
2022/07/17 02:10:47;;;;;;;2.60;1.10;;;;;;;17.05;54.54;101031.78;5590666;31;33919;-67
2022/07/17 02:13:50;;;;;;;1.50;1.02;;;;;;;17.00;54.95;101028.84;5590299;31;33910;-67
2022/07/17 02:16:53;;;;;;;6.05;1.10;;;;;;;16.93;54.92;101034.16;5590534;31;34683;-66
2022/07/17 02:19:56;;;;;;;3.42;1.10;;;;;;;16.81;55.37;101028.50;5590231;31;34273;-67
2022/07/17 02:22:59;;;;;;;2.05;1.00;;;;;;;16.76;56.59;101041.63;5590175;31;33950;-67
2022/07/17 02:26:02;;;;;;;3.47;1.10;;;;;;;16.65;56.03;101038.66;5589275;31;32373;-67
2022/07/17 02:29:05;;;;;;;2.33;1.20;;;;;;;16.59;56.26;101037.56;5589346;31;32649;-67
2022/07/17 02:32:08;;;;;;;2.33;1.05;;;;;;;16.53;56.34;101046.31;5582839;31;230582;-68
2022/07/17 02:35:12;;;;;;;2.75;1.00;;;;;;;16.50;56.31;101044.03;5590068;31;33937;-67
2022/07/17 02:38:15;;;;;;;2.17;0.95;;;;;;;16.56;56.80;101056.66;5590396;31;34321;-67
2022/07/17 02:41:18;;;;;;;2.22;1.08;;;;;;;16.47;56.13;101055.09;5590286;31;33947;-67
2022/07/17 02:44:21;;;;;;;1.70;1.10;;;;;;;16.47;56.09;101050.59;5590035;31;33985;-67
2022/07/17 02:47:29;;;;;;;2.03;1.00;;;;;;;16.54;55.51;101050.66;5590263;31;35287;-67
2022/07/17 02:50:32;;;;;;;1.65;1.00;;;;;;;16.65;55.04;101057.41;5589481;31;33860;-67
2022/07/17 02:53:35;;;;;;;2.37;1.00;;;;;;;16.66;55.34;101067.06;5589485;31;34208;-67
2022/07/17 02:56:37;;;;;;;1.40;0.90;;;;;;;16.63;54.61;101062.94;5589994;31;34679;-67
2022/07/17 02:59:41;;;;;;;1.98;1.10;;;;;;;16.58;55.00;101062.69;5589125;31;34264;-67
2022/07/17 03:02:44;;;;;;;1.08;0.90;;;;;;;16.63;54.19;101062.94;5589848;31;34003;-68
2022/07/17 03:05:48;;;;;;;1.10;0.82;;;;;;;16.57;54.43;101061.00;5590185;31;33967;-67
2022/07/17 03:08:50;;;;;;;3.70;1.12;;;;;;;16.66;53.75;101075.13;5589793;31;33813;-68
2022/07/17 03:11:53;;;;;;;2.70;0.98;;;;;;;16.61;53.72;101062.28;5589002;31;33251;-68
2022/07/17 03:14:56;;;;;;;3.05;1.10;;;;;;;16.60;53.91;101062.50;5589266;31;34006;-68
2022/07/17 03:17:59;;;;;;;1.80;1.10;;;;;;;16.57;53.86;101076.22;5589787;31;33987;-67
2022/07/17 03:21:01;;;;;;;2.55;0.90;;;;;;;16.46;54.09;101073.03;5589698;31;33948;-67
2022/07/17 03:24:05;;;;;;;1.92;0.90;;;;;;;16.47;54.18;101085.41;5589685;31;33982;-67
2022/07/17 03:27:07;;;;;;;3.42;1.05;;;;;;;16.43;54.04;101083.28;5590108;31;33939;-68
2022/07/17 03:30:10;;;;;;;1.20;0.85;;;;;;;16.41;53.68;101083.47;5589384;31;34160;-67
2022/07/17 03:33:13;;;;;;;1.65;0.90;;;;;;;16.48;53.49;101089.75;5589086;31;32659;-68
2022/07/17 03:36:16;;;;;;;1.98;0.98;;;;;;;16.51;53.24;101094.72;5589683;31;33825;-67
2022/07/17 03:39:19;;;;;;;2.45;1.10;;;;;;;16.54;53.39;101101.56;5589602;31;33999;-68
2022/07/17 03:42:22;;;;;;;3.85;1.10;;;;;;;16.53;53.22;101103.41;5589671;31;34760;-67
2022/07/17 03:45:24;;;;;;;1.48;0.85;;;;;;;16.59;53.42;101101.03;5589422;31;34180;-68
2022/07/17 03:48:28;;;;;;;1.77;0.93;;;;;;;16.54;53.29;101098.88;5588726;31;34100;-68
2022/07/17 03:51:31;;;;;;;1.17;0.80;;;;;;;16.53;53.53;101103.41;5589836;31;34314;-67
2022/07/17 03:54:34;;;;;;;3.10;1.00;;;;;;;16.59;53.21;101112.56;5589388;31;34278;-68
2022/07/17 03:57:37;;;;;;;1.65;0.80;;;;;;;16.61;53.25;101118.56;5589665;31;34100;-68
2022/07/17 04:00:40;;;;;;;6.32;0.85;;;;;;;16.65;54.11;101119.84;5588959;31;34906;-68
2022/07/17 04:03:43;;;;;;;1.40;0.80;;;;;;;16.66;53.21;101115.31;5575481;31;33105;-68
2022/07/17 04:06:46;;;;;;;3.08;1.00;;;;;;;16.69;52.64;101122.97;5589171;31;34705;-68
2022/07/17 04:09:49;;;;;;;2.17;0.93;;;;;;;16.74;52.95;101124.06;5589308;31;34694;-68
2022/07/17 04:12:52;;;;;;;1.27;0.77;;;;;;;16.76;52.26;101134.59;5589411;31;34096;-66
2022/07/17 04:15:59;;;;;;;2.67;0.82;;;;;;;16.78;52.48;101132.56;5588386;31;34681;-68
2022/07/17 04:19:02;;;;;;;4.28;0.90;;;;;;;16.88;52.58;101138.44;5589102;31;33912;-68
2022/07/17 04:22:05;;;;;;;1.58;1.00;;;;;;;16.97;52.14;101136.47;5589070;31;34790;-67
2022/07/17 04:25:08;;;;;;;2.75;0.80;;;;;;;16.80;52.54;101142.06;5589041;31;34336;-68
2022/07/17 04:28:12;;;;;;;0.60;0.60;;;;;;;16.90;52.49;101145.25;5588951;31;34735;-67
2022/07/17 04:31:14;;;;;;;1.20;0.70;;;;;;;16.87;52.71;101145.66;5588546;31;34810;-68
2022/07/17 04:34:17;;;;;;;1.65;0.80;;;;;;;16.89;52.47;101148.16;5588798;31;34227;-68
2022/07/17 04:37:20;;;;;;;2.20;0.90;;;;;;;16.95;52.55;101152.72;5588275;31;34382;-68
2022/07/17 04:40:23;;;;;;;1.92;0.80;;;;;;;17.05;51.85;101155.09;5589042;31;34589;-68
2022/07/17 04:43:26;;;;;;;3.22;0.93;;;;;;;17.07;52.20;101159.25;5588718;31;34035;-68
2022/07/17 04:46:29;;;;;;;1.30;0.90;;;;;;;17.13;51.65;101160.34;5588590;31;33913;-67
2022/07/17 04:49:32;;;;;;;5.65;1.00;;;;;;;17.22;51.49;101161.88;5588451;31;34100;-66
2022/07/17 04:52:36;;;;;;;2.10;0.80;;;;;;;17.25;50.68;101164.16;5588858;31;34756;-67
2022/07/17 04:55:39;;;;;;;1.27;0.90;;;;;;;17.33;50.51;101161.38;5588532;31;33977;-67
2022/07/17 04:58:42;;;;;;;1.42;1.00;;;;;;;17.35;50.79;101165.50;5588352;31;34080;-66
2022/07/17 05:01:45;;;;;;;2.83;0.80;;;;;;;17.39;51.17;101168.63;5588260;31;34606;-67
2022/07/17 05:04:48;;;;;;;1.27;0.77;;;;;;;17.53;50.65;101164.19;5587385;31;33983;-67
2022/07/17 05:07:51;;;;;;;2.50;0.85;;;;;;;17.70;50.02;101170.97;5588212;31;34299;-67
2022/07/17 05:10:54;;;;;;;1.42;0.77;;;;;;;17.85;49.27;101173.56;5588024;31;33955;-68
2022/07/17 05:13:57;;;;;;;1.20;0.80;;;;;;;17.77;49.37;101170.00;5589217;31;35365;-68
2022/07/17 05:17:00;;;;;;;3.03;0.80;;;;;;;17.78;49.09;101179.72;5590750;31;34567;-68
2022/07/17 05:20:04;;;;;;;1.48;0.90;;;;;;;17.75;49.38;101181.97;5590050;31;34333;-68
2022/07/17 05:23:07;;;;;;;1.98;0.90;;;;;;;17.90;49.17;101180.00;5590777;31;35299;-67
2022/07/17 05:26:10;;;;;;;0.95;0.77;;;;;;;17.99;48.83;101186.06;5589708;31;32444;-67
2022/07/17 05:29:14;;;;;;;0.85;0.60;;;;;;;18.11;48.48;101187.16;5589944;31;35207;-67
2022/07/17 05:32:16;;;;;;;3.25;1.00;;;;;;;18.12;48.25;101191.50;5590188;31;34669;-67
2022/07/17 05:35:20;;;;;;;2.08;0.90;;;;;;;18.31;48.14;101190.78;5590586;31;34069;-67
2022/07/17 05:38:23;;;;;;;1.40;0.70;;;;;;;18.30;47.54;101191.81;5591071;31;34008;-68
2022/07/17 05:41:26;;;;;;;1.33;0.77;;;;;;;18.52;47.35;101193.37;5590467;31;34788;-68
2022/07/17 05:44:29;;;;;;;1.55;0.77;;;;;;;18.41;47.10;101196.63;5590382;31;34543;-67
2022/07/17 05:47:32;;;;;;;1.58;0.60;;;;;;;18.52;47.05;101192.56;5590386;31;34200;-68
2022/07/17 05:50:35;;;;;;;1.83;0.70;;;;;;;18.72;46.74;101198.03;5589747;31;34097;-67
2022/07/17 05:53:38;;;;;;;1.77;0.80;;;;;;;18.74;45.91;101195.97;5590407;31;35238;-67
2022/07/17 05:56:40;;;;;;;3.03;0.90;;;;;;;18.72;46.29;101196.19;5590466;31;34275;-67
2022/07/17 05:59:43;;;;;;;1.75;0.82;;;;;;;18.91;45.65;101200.81;5590787;31;34755;-67
2022/07/17 06:02:46;;;;;;;1.25;0.62;;;;;;;18.88;45.84;101206.56;5589436;31;34501;-67
2022/07/17 06:05:50;;;;;;;2.85;0.77;;;;;;;18.86;45.22;101210.50;5590313;31;35374;-68
2022/07/17 06:08:52;;;;;;;1.37;0.77;;;;;;;18.79;45.92;101212.31;5589693;31;32514;-68
2022/07/17 06:11:56;;;;;;;1.65;0.70;;;;;;;18.87;44.71;101213.00;5590259;31;34642;-67
2022/07/17 06:14:59;;;;;;;1.05;0.70;;;;;;;19.15;43.90;101210.19;5589356;31;34020;-67
2022/07/17 06:18:03;;;;;;;3.85;0.70;;;;;;;19.06;43.63;101224.84;5590518;31;35348;-67
2022/07/17 06:21:06;;;;;;;1.23;0.60;;;;;;;19.11;43.67;101222.38;5590132;31;33938;-67
2022/07/17 06:24:09;;;;;;;2.10;0.60;;;;;;;19.33;43.35;101217.66;5589648;31;33952;-69
2022/07/17 06:27:12;;;;;;;1.02;0.60;;;;;;;19.46;40.47;101220.41;5590199;31;34024;-67
2022/07/17 06:30:16;;;;;;;2.78;0.60;;;;;;;19.52;39.80;101222.25;5590503;31;33904;-68
2022/07/17 06:33:20;;;;;;;1.77;0.60;;;;;;;19.46;38.46;101228.47;5590277;31;34337;-67
2022/07/17 06:36:24;;;;;;;1.02;0.50;;;;;;;19.61;38.06;101223.72;5590073;31;34312;-67
2022/07/17 06:39:27;;;;;;;1.40;0.50;;;;;;;19.63;37.70;101228.91;5588915;31;32559;-68
2022/07/17 06:42:30;;;;;;;2.33;0.70;;;;;;;19.69;37.32;101241.53;5589915;31;34130;-66
2022/07/17 06:45:34;;;;;;;1.08;0.60;;;;;;;19.81;37.78;101237.19;5589876;31;33932;-68
2022/07/17 06:48:37;;;;;;;1.42;0.60;;;;;;;19.83;37.68;101237.81;5589926;31;34465;-66
2022/07/17 06:51:45;;;;;;;2.65;0.60;;;;;;;19.95;37.60;101233.44;5590311;31;33835;-68
2022/07/17 06:54:48;;;;;;;1.42;0.50;;;;;;;20.06;37.03;101226.59;5589677;31;34018;-68
2022/07/17 06:57:51;;;;;;;0.77;0.55;;;;;;;20.17;37.11;101226.81;5589238;31;32494;-68
2022/07/17 07:00:54;;;;;;;0.62;0.52;;;;;;;20.19;36.91;101240.03;5589825;31;34741;-67
2022/07/17 07:03:57;;;;;;;1.70;0.60;;;;;;;20.29;37.22;101227.81;5588749;31;32602;-67
2022/07/17 07:07:00;;;;;;;3.37;0.60;;;;;;;20.68;36.84;101232.28;5590186;31;34191;-66
2022/07/17 07:10:03;;;;;;;2.35;0.60;;;;;;;20.93;35.88;101231.56;5588713;31;32844;-67
2022/07/17 07:13:06;;;;;;;1.55;0.57;;;;;;;21.17;34.91;101233.53;5588311;31;34790;-66
2022/07/17 07:16:10;;;;;;;2.90;0.50;;;;;;;20.80;34.82;101233.28;5588676;31;32412;-67
2022/07/17 07:19:13;;;;;;;1.05;0.57;;;;;;;21.10;34.72;101232.72;5589286;31;33907;-67
2022/07/17 07:22:16;;;;;;;1.00;0.50;;;;;;;21.48;34.56;101232.72;5588927;31;34068;-67
2022/07/17 07:25:19;;;;;;;1.90;0.70;;;;;;;21.53;34.24;101228.31;5589387;31;34645;-67
2022/07/17 07:28:22;;;;;;;2.33;0.80;;;;;;;21.52;34.41;101223.13;5589659;31;34078;-67
2022/07/17 07:31:25;;;;;;;3.12;0.52;;;;;;;22.26;34.15;101233.94;5588528;31;33996;-66
2022/07/17 07:34:28;;;;;;;1.95;0.60;;;;;;;22.62;32.51;101235.81;5589264;31;34532;-66
2022/07/17 07:37:32;;;;;;;1.10;0.50;;;;;;;22.78;32.32;101237.94;5588632;31;33925;-67
2022/07/17 07:40:36;;;;;;;1.85;0.52;;;;;;;22.71;31.81;101244.47;5589470;31;34018;-67
2022/07/17 07:43:39;;;;;;;1.12;0.47;;;;;;;22.70;31.85;101235.56;5575625;31;32620;-67
2022/07/17 07:46:41;;;;;;;1.30;0.70;;;;;;;23.00;32.06;101246.41;5589329;31;34033;-67
2022/07/17 07:49:44;;;;;;;2.67;0.40;;;;;;;23.86;30.76;101237.88;5588785;31;33916;-67
2022/07/17 07:52:47;;;;;;;1.48;0.57;;;;;;;23.89;30.40;101237.37;5589686;31;34415;-67
2022/07/17 07:55:52;;;;;;;2.05;0.47;;;;;;;23.73;31.24;101243.47;5589625;31;33919;-67
2022/07/17 07:58:55;;;;;;;2.55;0.62;;;;;;;24.17;30.24;101250.25;5589278;31;33973;-67
2022/07/17 08:01:59;;;;;;;2.70;0.60;;;;;;;24.09;30.63;101242.47;5589276;31;34058;-67
2022/07/17 08:05:03;;;;;;;1.37;0.62;;;;;;;25.37;28.33;101243.00;5589387;31;34957;-67
2022/07/17 08:08:06;;;;;;;0.68;0.52;;;;;;;25.61;28.08;101246.44;5589341;31;34030;-68
2022/07/17 08:11:10;;;;;;;1.00;0.50;;;;;;;26.15;27.30;101242.12;5588830;31;35290;-68
2022/07/17 08:14:12;;;;;;;0.80;0.30;;;;;;;26.91;25.69;101245.94;5588932;31;34632;-66
2022/07/17 08:17:20;;;;;;;1.87;0.50;;;;;;;26.37;25.75;101243.03;5589018;31;34602;-67
2022/07/17 08:20:23;;;;;;;1.65;0.45;;;;;;;25.62;27.59;101236.38;5588997;31;34473;-68
2022/07/17 08:23:26;;;;;;;1.12;0.52;;;;;;;25.69;27.60;101239.78;5589014;31;34371;-67
2022/07/17 08:26:28;;;;;;;0.90;0.50;;;;;;;25.94;27.16;101240.19;5588315;31;33876;-67
2022/07/17 08:29:32;;;;;;;1.08;0.55;;;;;;;25.58;27.48;101249.66;5588260;31;34703;-68
2022/07/17 08:32:54;;;;;;;1.25;0.47;;;;;;;26.16;27.36;101259.28;5587928;31;34599;-67
2022/07/17 08:35:58;;;;;;;0.93;0.40;;;;;;;26.10;26.31;101255.66;5587514;31;34840;-67
2022/07/17 08:39:01;;;;;;;2.10;0.62;;;;;;;26.45;25.58;101266.25;5587571;31;34059;-67
2022/07/17 08:42:07;;;;;;;1.60;0.40;;;;;;;26.19;25.99;101259.59;5574668;31;34277;-67
2022/07/17 08:45:11;;;;;;;0.75;0.52;;;;;;;25.94;26.81;101253.78;5587488;31;33899;-67
2022/07/17 08:48:16;;;;;;;0.82;0.45;;;;;;;25.86;26.72;101251.47;5589803;31;34001;-67
2022/07/17 08:51:19;;;;;;;0.82;0.50;;;;;;;26.28;26.39;101246.44;5590845;31;33872;-67
2022/07/17 08:54:22;;;;;;;4.90;0.70;;;;;;;26.56;26.00;101245.47;5591121;31;34781;-67
2022/07/17 08:57:26;;;;;;;0.75;0.40;;;;;;;27.03;25.14;101245.78;5590805;31;34021;-67
2022/07/17 09:00:30;;;;;;;1.37;0.50;;;;;;;28.29;23.38;101249.66;5591165;31;34616;-68
2022/07/17 09:03:33;;;;;;;0.77;0.40;;;;;;;28.20;23.09;101259.41;5589920;31;33657;-67
2022/07/17 09:06:44;;;;;;;1.12;0.60;;;;;;;27.62;24.43;101249.41;5590838;31;34814;-67
2022/07/17 09:09:51;;;;;;;1.87;0.60;;;;;;;28.95;21.96;101237.13;5590732;31;34107;-68
2022/07/17 09:12:54;;;;;;;2.05;0.50;;;;;;;29.79;21.60;101244.09;5590587;31;33934;-67
2022/07/17 09:16:10;;;;;;;1.37;0.50;;;;;;;29.87;20.53;101245.47;5590636;31;34124;-68
2022/07/17 09:19:30;;;;;;;1.87;0.60;;;;;;;27.48;22.98;101239.97;5590583;31;35190;-69
2022/07/17 09:22:35;;;;;;;1.83;0.60;;;;;;;27.69;23.43;101241.84;5589836;31;33943;-67
2022/07/17 09:25:41;;;;;;;0.95;0.50;;;;;;;27.98;23.53;101251.31;5590679;31;34764;-66
2022/07/17 09:28:46;;;;;;;2.60;0.70;;;;;;;28.46;22.60;101230.37;5589692;31;32685;-68
2022/07/17 09:31:51;;;;;;;0.57;0.47;;;;;;;28.93;22.69;101231.13;5590104;31;34730;-68
2022/07/17 09:34:57;;;;;;;2.60;0.60;;;;;;;29.34;21.67;101236.69;5590643;31;34384;-69
2022/07/17 09:37:59;;;;;;;5.75;0.60;;;;;;;29.62;21.66;101238.09;5590498;31;34813;-68
2022/07/17 09:41:11;;;;;;;1.05;0.52;;;;;;;29.90;21.17;101234.81;5590637;31;34012;-68
2022/07/17 09:44:16;;;;;;;0.88;0.43;;;;;;;29.93;20.82;101228.78;5590278;31;34046;-67
2022/07/17 09:47:20;;;;;;;1.48;0.50;;;;;;;29.78;20.85;101215.91;5589400;31;34373;-68
2022/07/17 09:50:26;;;;;;;1.83;0.70;;;;;;;29.03;21.90;101213.13;5590251;31;34684;-68
2022/07/17 09:53:33;;;;;;;1.20;0.50;;;;;;;31.18;19.61;101217.66;5589305;31;33981;-68
2022/07/17 09:56:37;;;;;;;1.48;0.40;;;;;;;29.96;20.52;101216.50;5589460;31;33266;-69
2022/07/17 09:59:44;;;;;;;0.55;0.40;;;;;;;29.86;20.63;101211.81;5589913;31;33183;-69
2022/07/17 10:02:48;;;;;;;1.92;0.50;;;;;;;31.84;19.10;101222.66;5589496;31;32954;-68
2022/07/17 10:05:51;;;;;;;0.93;0.50;;;;;;;31.25;19.12;101222.84;5589986;31;34359;-68
2022/07/17 10:08:55;;;;;;;3.22;0.60;;;;;;;30.59;20.00;101209.50;5589478;31;33409;-68
2022/07/17 10:11:59;;;;;;;0.80;0.50;;;;;;;29.91;20.92;101211.03;5576081;31;34014;-67
2022/07/17 10:15:03;;;;;;;1.92;0.57;;;;;;;30.18;20.90;101212.34;5589106;31;32727;-67
2022/07/17 10:18:09;;;;;;;1.20;0.50;;;;;;;30.75;19.92;101204.75;5590237;31;33962;-67
2022/07/17 10:21:18;;;;;;;2.75;0.90;;;;;;;31.18;20.37;101206.69;5590593;31;33941;-67
2022/07/17 10:24:22;;;;;;;0.62;0.40;;;;;;;32.49;18.72;101201.09;5589923;31;33994;-69
2022/07/17 10:27:29;;;;;;;1.35;0.50;;;;;;;33.61;17.57;101210.19;5590562;31;33629;-68
2022/07/17 10:30:33;;;;;;;1.17;0.40;;;;;;;32.48;17.25;101215.97;5590475;31;33977;-69
2022/07/17 10:33:38;;;;;;;2.67;0.40;;;;;;;30.30;19.78;101208.47;5589857;31;33939;-68
2022/07/17 10:36:43;;;;;;;1.17;0.50;;;;;;;29.86;20.10;101200.06;5589254;31;34588;-67
2022/07/17 10:40:05;;;;;;;1.52;0.60;;;;;;;31.68;19.06;101197.28;5589833;31;34177;-69
2022/07/17 10:43:09;;;;;;;1.92;0.70;;;;;;;32.29;18.14;101202.97;5589870;31;34298;-69
2022/07/17 10:46:13;;;;;;;1.33;0.50;;;;;;;32.65;18.17;101197.06;5589245;31;33127;-69
2022/07/17 10:49:17;;;;;;;0.80;0.47;;;;;;;33.24;17.30;101201.19;5589352;31;34088;-69
2022/07/17 10:52:20;;;;;;;1.77;0.50;;;;;;;30.73;19.47;101190.53;5589803;31;33907;-67
2022/07/17 10:55:23;;;;;;;1.42;0.50;;;;;;;31.86;18.73;101188.31;5589270;31;33160;-69
2022/07/17 10:58:32;;;;;;;0.65;0.47;;;;;;;35.33;15.93;101200.38;5589058;31;33098;-69
2022/07/17 11:01:36;;;;;;;4.40;0.62;;;;;;;33.46;16.38;101190.38;5589934;31;33953;-68
2022/07/17 11:04:39;;;;;;;1.48;0.60;;;;;;;34.78;15.65;101188.69;5589766;31;34684;-69
2022/07/17 11:07:58;;;;;;;2.83;0.40;;;;;;;35.03;15.54;101190.03;5590039;31;35366;-69
2022/07/17 11:11:00;;;;;;;0.95;0.47;;;;;;;33.08;16.46;101186.81;5574752;31;32639;-69
2022/07/17 11:14:18;;;;;;;2.95;0.50;;;;;;;33.04;16.27;101186.63;5589843;31;34618;-69
2022/07/17 11:17:21;;;;;;;0.73;0.50;;;;;;;32.74;16.28;101176.06;5589632;31;34448;-68
2022/07/17 11:20:25;;;;;;;1.37;0.43;;;;;;;35.15;14.98;101174.56;5589831;31;34306;-68
2022/07/17 11:23:30;;;;;;;0.90;0.43;;;;;;;35.45;14.86;101167.50;5589757;31;35265;-68
2022/07/17 11:26:33;;;;;;;0.77;0.50;;;;;;;36.43;14.47;101179.19;5588632;31;32702;-68
2022/07/17 11:29:40;;;;;;;0.90;0.52;;;;;;;38.09;12.67;101165.75;5589323;31;33908;-69
2022/07/17 11:32:43;;;;;;;1.67;0.40;;;;;;;37.34;12.92;101164.47;5589850;31;34582;-68
2022/07/17 11:35:46;;;;;;;3.17;0.45;;;;;;;37.03;12.92;101155.53;5589718;31;34123;-68
2022/07/17 11:38:50;;;;;;;0.88;0.50;;;;;;;38.87;12.44;101160.53;5589548;31;34373;-69
2022/07/17 11:41:53;;;;;;;2.08;0.40;;;;;;;39.39;11.89;101147.00;5588739;31;34161;-68
2022/07/17 11:44:56;;;;;;;2.42;0.55;;;;;;;37.83;11.80;101143.66;5588855;31;34062;-68
2022/07/17 11:48:04;;;;;;;1.75;0.57;;;;;;;34.07;14.90;101136.97;5589608;31;33884;-68
2022/07/17 11:51:07;;;;;;;1.80;0.60;;;;;;;33.80;15.40;101141.34;5588523;31;32351;-68
2022/07/17 11:54:15;;;;;;;0.73;0.40;;;;;;;36.22;13.97;101135.88;5589579;31;34626;-68
2022/07/17 11:57:19;;;;;;;1.35;0.45;;;;;;;38.81;11.84;101134.94;5589514;31;33900;-68
2022/07/17 12:00:22;;;;;;;1.05;0.47;;;;;;;36.61;12.92;101135.81;5589619;31;33997;-68
2022/07/17 12:03:25;;;;;;;1.15;0.50;;;;;;;38.19;12.16;101123.78;5588738;31;32435;-69
2022/07/17 12:06:29;;;;;;;0.80;0.47;;;;;;;36.78;13.31;101132.28;5589283;31;34446;-68
2022/07/17 12:09:33;;;;;;;1.25;0.60;;;;;;;38.36;12.28;101131.19;5589568;31;34014;-68
2022/07/17 12:12:36;;;;;;;3.97;0.70;;;;;;;40.23;11.02;101128.84;5588902;31;34181;-70
2022/07/17 12:15:46;;;;;;;1.30;0.60;;;;;;;39.65;10.71;101118.94;5589183;31;34040;-68
2022/07/17 12:19:22;;;;;;;0.75;0.43;;;;;;;38.77;11.33;101117.38;5588978;31;34176;-68
2022/07/17 12:22:29;;;;;;;0.60;0.50;;;;;;;39.05;11.15;101123.16;5579073;31;34493;-69
2022/07/17 12:25:32;;;;;;;1.98;0.60;;;;;;;40.56;10.11;101126.69;5575461;31;35264;-67
2022/07/17 12:28:36;;;;;;;0.65;0.40;;;;;;;41.87;9.24;101126.78;5589040;31;34546;-69
2022/07/17 12:31:39;;;;;;;5.32;0.60;;;;;;;40.73;9.93;101120.03;5587793;31;33197;-68
2022/07/17 12:34:48;;;;;;;1.98;0.68;;;;;;;41.60;9.55;101117.31;5588580;31;33879;-70
2022/07/17 12:37:51;;;;;;;0.95;0.50;;;;;;;38.17;11.33;101117.75;5588821;31;34013;-68
2022/07/17 12:40:55;;;;;;;1.08;0.55;;;;;;;36.72;11.49;101098.44;5588725;31;33926;-69
2022/07/17 12:43:58;;;;;;;0.80;0.47;;;;;;;38.24;10.61;101105.03;5588498;31;35318;-68
2022/07/17 12:47:03;;;;;;;1.80;0.57;;;;;;;37.26;11.32;101102.47;5588753;31;33927;-68
2022/07/17 12:50:07;;;;;;;1.52;0.50;;;;;;;38.21;11.07;101091.81;5588994;31;34094;-67
2022/07/17 12:53:10;;;;;;;1.37;0.60;;;;;;;40.44;9.77;101100.88;5587655;31;33308;-68
2022/07/17 12:56:13;;;;;;;0.85;0.52;;;;;;;41.71;9.46;101106.44;5587876;31;32459;-69
2022/07/17 12:59:16;;;;;;;1.23;0.50;;;;;;;41.15;9.30;101093.44;5588368;31;34303;-69
2022/07/17 13:02:19;;;;;;;2.12;0.68;;;;;;;41.81;9.40;101086.38;5587529;31;32513;-69
2022/07/17 13:05:23;;;;;;;5.18;0.57;;;;;;;43.00;8.52;101093.00;5587763;31;34111;-67
2022/07/17 13:08:28;;;;;;;0.82;0.55;;;;;;;37.22;11.37;101086.84;5588123;31;34066;-68
2022/07/17 13:11:31;;;;;;;3.15;0.80;;;;;;;39.26;10.68;101082.31;5587383;31;33537;-69
2022/07/17 13:14:34;;;;;;;4.25;0.70;;;;;;;38.97;10.73;101093.56;5588109;31;34765;-68
2022/07/17 13:17:38;;;;;;;1.48;0.60;;;;;;;40.68;9.28;101092.47;5587827;31;34602;-69
2022/07/17 13:20:42;;;;;;;1.67;0.50;;;;;;;38.17;10.77;101071.47;5586974;31;33975;-68
2022/07/17 13:23:45;;;;;;;0.73;0.40;;;;;;;40.49;9.86;101072.81;5587405;31;34686;-68
2022/07/17 13:26:49;;;;;;;2.67;0.50;;;;;;;41.06;9.35;101078.88;5587138;31;33151;-68
2022/07/17 13:29:53;;;;;;;0.60;0.50;;;;;;;38.01;11.42;101066.84;5588080;31;33990;-68
2022/07/17 13:32:58;;;;;;;1.08;0.43;;;;;;;37.85;11.28;101061.88;5586735;31;33209;-68
2022/07/17 13:36:01;;;;;;;1.10;0.60;;;;;;;37.79;11.29;101063.19;5589479;31;34472;-68
2022/07/17 13:39:07;;;;;;;1.12;0.45;;;;;;;38.68;10.75;101066.72;5590579;31;34010;-68
2022/07/17 13:42:11;;;;;;;3.08;0.40;;;;;;;39.36;10.51;101072.75;5590179;31;34066;-67
2022/07/17 13:45:15;;;;;;;1.12;0.45;;;;;;;41.38;8.88;101064.97;5589336;31;34201;-68
2022/07/17 13:48:19;;;;;;;1.08;0.68;;;;;;;42.53;8.22;101070.13;5589601;31;32753;-68
2022/07/17 13:51:22;;;;;;;5.47;0.93;;;;;;;42.04;8.40;101068.66;5590287;31;34757;-69
2022/07/17 13:54:25;;;;;;;1.10;0.68;;;;;;;41.20;9.35;101050.63;5589356;31;33462;-69
2022/07/17 13:57:28;;;;;;;5.10;0.70;;;;;;;41.46;8.96;101059.25;5589221;31;34306;-69
2022/07/17 14:00:32;;;;;;;2.85;0.70;;;;;;;38.10;10.54;101064.84;5589494;31;33963;-68
2022/07/17 14:03:34;;;;;;;1.50;0.50;;;;;;;38.90;10.21;101058.03;5589891;31;33973;-69
2022/07/17 14:06:37;;;;;;;1.73;0.60;;;;;;;39.58;9.94;101050.06;5590614;31;34203;-69
2022/07/17 14:09:41;;;;;;;1.65;0.68;;;;;;;40.71;9.02;101052.84;5590328;31;34667;-69
2022/07/17 14:12:44;;;;;;;1.60;0.45;;;;;;;40.99;9.03;101052.78;5589938;31;35205;-69
2022/07/17 14:15:50;;;;;;;1.52;0.60;;;;;;;39.58;9.38;101052.03;5589735;31;35473;-69
2022/07/17 14:18:59;;;;;;;1.35;0.52;;;;;;;39.78;9.53;101048.38;5590391;31;34335;-68